createdAt,value
2022-12-28T00:01:19.399Z,99.90
2022-12-28T00:04:23.096Z,99.90
2022-12-28T00:07:26.421Z,99.90
2022-12-28T00:11:09.073Z,99.90
2022-12-28T00:16:58.270Z,99.90
2022-12-28T00:20:01.713Z,99.90
2022-12-28T00:23:08.393Z,99.90
2022-12-28T00:26:13.812Z,99.90
2022-12-28T00:29:19.068Z,99.90
2022-12-28T00:32:22.441Z,99.90
2022-12-28T00:35:25.704Z,99.90
2022-12-28T00:38:32.059Z,99.90
2022-12-28T00:41:35.510Z,99.90
2022-12-28T00:44:40.461Z,99.90
2022-12-28T00:47:44.122Z,99.90
2022-12-28T00:50:48.548Z,99.90
2022-12-28T00:53:52.293Z,99.90
2022-12-28T00:56:55.602Z,99.90
2022-12-28T01:03:04.734Z,99.90
2022-12-28T01:06:08.574Z,99.90
2022-12-28T01:09:12.973Z,99.90
2022-12-28T01:12:16.271Z,99.90
2022-12-28T01:18:24.873Z,99.90
2022-12-28T01:21:29.788Z,99.90
2022-12-28T01:24:33.141Z,99.90
2022-12-28T01:27:36.944Z,99.90
2022-12-28T01:30:41.603Z,99.90
2022-12-28T01:33:45.486Z,99.90
2022-12-28T01:36:48.774Z,99.90
2022-12-28T01:39:52.169Z,99.90
2022-12-28T01:42:55.415Z,99.90
2022-12-28T01:49:08.137Z,99.90
2022-12-28T01:52:17.441Z,99.90
2022-12-28T01:55:22.945Z,99.90
2022-12-28T01:58:31.820Z,99.90
2022-12-28T02:01:36.895Z,99.90
2022-12-28T02:04:40.468Z,99.90
2022-12-28T02:07:51.883Z,99.90
2022-12-28T02:10:55.959Z,99.90
2022-12-28T02:14:01.225Z,99.90
2022-12-28T02:17:06.095Z,99.90
2022-12-28T02:20:10.404Z,99.90
2022-12-28T02:23:35.587Z,99.90
2022-12-28T02:26:58.876Z,99.90
2022-12-28T02:30:07.482Z,99.90
2022-12-28T02:33:18.772Z,99.90
2022-12-28T02:36:28.760Z,99.90
2022-12-28T02:39:38.452Z,99.90
2022-12-28T02:42:42.783Z,99.90
2022-12-28T02:46:06.462Z,99.90
2022-12-28T02:49:37.396Z,99.90
2022-12-28T02:53:08.938Z,99.90
2022-12-28T02:56:28.306Z,99.90
2022-12-28T02:59:56.063Z,99.90
2022-12-28T03:03:15.630Z,99.90
2022-12-28T03:06:51.439Z,99.90
2022-12-28T03:10:03.937Z,99.90
2022-12-28T03:13:33.505Z,99.90
2022-12-28T03:16:53.435Z,99.90
2022-12-28T03:20:26.256Z,99.90
2022-12-28T03:23:49.686Z,99.90
2022-12-28T03:27:11.665Z,99.90
2022-12-28T03:30:42.490Z,99.90
2022-12-28T03:33:48.429Z,99.90
2022-12-28T03:37:00.385Z,99.90
2022-12-28T03:40:11.201Z,99.90
2022-12-28T03:43:37.171Z,99.90
2022-12-28T03:46:47.634Z,99.90
2022-12-28T03:49:51.279Z,99.90
2022-12-28T03:52:56.669Z,99.90
2022-12-28T03:56:11.619Z,99.90
2022-12-28T03:59:15.964Z,99.90
2022-12-28T04:02:22.052Z,99.90
2022-12-28T04:05:26.161Z,99.90
2022-12-28T04:08:31.917Z,99.90
2022-12-28T04:11:35.969Z,99.90
2022-12-28T04:14:43.443Z,99.90
2022-12-28T04:17:46.728Z,99.90
2022-12-28T04:20:50.087Z,99.90
2022-12-28T04:23:55.511Z,99.90
2022-12-28T04:26:59.390Z,99.90
2022-12-28T04:30:02.709Z,99.90
2022-12-28T04:33:08.209Z,99.90
2022-12-28T04:36:14.830Z,99.90
2022-12-28T04:39:20.782Z,99.90
2022-12-28T04:42:24.656Z,99.90
2022-12-28T04:45:28.050Z,99.90
2022-12-28T04:48:35.629Z,99.90
2022-12-28T04:51:38.899Z,99.90
2022-12-28T04:57:47.396Z,99.90
2022-12-28T05:00:50.696Z,99.90
2022-12-28T05:03:58.711Z,99.90
2022-12-28T05:07:03.200Z,99.90
2022-12-28T05:10:08.609Z,99.90
2022-12-28T05:13:11.839Z,99.90
2022-12-28T05:16:16.953Z,99.90
2022-12-28T05:19:20.295Z,99.90
2022-12-28T05:22:23.530Z,99.90
2022-12-28T05:25:28.168Z,99.90
2022-12-28T05:28:31.513Z,99.90
2022-12-28T05:31:34.965Z,99.90
2022-12-28T05:34:38.386Z,99.90
2022-12-28T05:37:41.585Z,99.90
2022-12-28T05:43:50.324Z,99.90
2022-12-28T05:46:54.459Z,99.90
2022-12-28T05:49:57.779Z,99.90
2022-12-28T05:53:00.970Z,99.90
2022-12-28T05:56:13.923Z,99.90
2022-12-28T05:59:18.154Z,99.90
2022-12-28T06:02:25.450Z,99.90
2022-12-28T06:05:28.807Z,99.90
2022-12-28T06:08:32.060Z,99.90
2022-12-28T06:11:37.493Z,99.90
2022-12-28T06:14:40.766Z,99.90
2022-12-28T06:17:43.906Z,99.90
2022-12-28T06:20:47.499Z,99.90
2022-12-28T06:23:53.132Z,99.90
2022-12-28T06:26:57.753Z,99.90
2022-12-28T06:30:00.942Z,99.90
2022-12-28T06:33:04.296Z,99.90
2022-12-28T06:36:19.438Z,99.90
2022-12-28T06:39:23.284Z,99.90
2022-12-28T06:42:27.850Z,99.90
2022-12-28T06:45:31.083Z,99.90
2022-12-28T06:48:35.615Z,99.90
2022-12-28T06:51:41.451Z,99.90
2022-12-28T06:54:45.147Z,99.90
2022-12-28T06:57:49.746Z,99.90
2022-12-28T07:00:54.759Z,99.90
2022-12-28T07:03:59.481Z,99.90
2022-12-28T07:07:02.976Z,99.90
2022-12-28T07:10:07.127Z,99.90
2022-12-28T07:13:11.732Z,99.90
2022-12-28T07:16:17.069Z,99.90
2022-12-28T07:19:20.324Z,99.90
2022-12-28T07:22:23.582Z,99.90
2022-12-28T07:25:26.812Z,99.90
2022-12-28T07:28:31.589Z,99.90
2022-12-28T07:31:41.976Z,99.90
2022-12-28T07:34:47.709Z,99.90
2022-12-28T07:37:50.973Z,99.90
2022-12-28T07:40:54.274Z,99.90
2022-12-28T07:43:59.045Z,99.90
2022-12-28T07:47:02.355Z,99.90
2022-12-28T07:50:05.943Z,99.90
2022-12-28T07:53:09.168Z,99.90
2022-12-28T07:56:13.053Z,99.90
2022-12-28T07:59:17.981Z,99.90
2022-12-28T08:02:21.468Z,99.90
2022-12-28T08:05:24.960Z,99.90
2022-12-28T08:08:28.296Z,99.90
2022-12-28T08:11:33.353Z,99.90
2022-12-28T08:14:38.249Z,99.90
2022-12-28T08:17:42.047Z,99.90
2022-12-28T08:20:45.310Z,99.90
2022-12-28T08:23:49.020Z,99.90
2022-12-28T08:26:52.221Z,99.90
2022-12-28T08:29:58.941Z,99.90
2022-12-28T08:33:02.450Z,99.90
2022-12-28T08:36:08.562Z,99.90
2022-12-28T08:39:11.996Z,99.90
2022-12-28T08:42:15.259Z,99.90
2022-12-28T08:45:20.216Z,99.90
2022-12-28T08:48:23.624Z,99.90
2022-12-28T08:51:29.532Z,99.90
2022-12-28T08:54:33.237Z,99.90
2022-12-28T08:57:36.581Z,99.90
2022-12-28T09:00:41.290Z,99.90
2022-12-28T09:03:46.622Z,99.90
2022-12-28T09:06:52.044Z,99.90
2022-12-28T09:09:58.031Z,99.90
2022-12-28T09:13:01.468Z,99.90
2022-12-28T09:16:08.026Z,99.90
2022-12-28T09:19:15.551Z,99.90
2022-12-28T09:22:18.985Z,99.90
2022-12-28T09:25:22.255Z,99.90
2022-12-28T09:28:25.679Z,99.90
2022-12-28T09:31:32.247Z,99.90
2022-12-28T09:34:37.805Z,99.90
2022-12-28T09:37:41.950Z,99.90
2022-12-28T09:40:45.190Z,99.90
2022-12-28T09:43:49.322Z,99.90
2022-12-28T09:46:59.914Z,99.90
2022-12-28T09:50:30.387Z,99.90
2022-12-28T09:53:36.424Z,99.90
2022-12-28T09:56:42.841Z,99.90
2022-12-28T09:59:47.863Z,99.90
2022-12-28T10:02:56.447Z,99.90
2022-12-28T10:06:00.537Z,99.40
2022-12-28T10:09:07.011Z,96.70
2022-12-28T10:12:16.372Z,95.70
2022-12-28T10:15:19.888Z,93.80
2022-12-28T10:18:32.336Z,88.70
2022-12-28T10:21:39.616Z,83.80
2022-12-28T10:24:43.761Z,78.10
2022-12-28T10:27:47.116Z,75.50
2022-12-28T10:31:04.848Z,67.40
2022-12-28T10:34:17.907Z,66.90
2022-12-28T10:37:21.981Z,63.60
2022-12-28T10:40:28.571Z,60.00
2022-12-28T10:43:34.281Z,58.20
2022-12-28T10:46:38.769Z,52.70
2022-12-28T10:50:18.476Z,43.50
2022-12-28T10:53:26.442Z,42.90
2022-12-28T10:56:31.253Z,43.00
2022-12-28T10:59:34.581Z,34.40
2022-12-28T11:02:38.121Z,27.50
2022-12-28T11:05:42.889Z,28.40
2022-12-28T11:08:47.769Z,23.70
2022-12-28T11:11:53.830Z,20.90
2022-12-28T11:14:57.374Z,18.90
2022-12-28T11:18:02.837Z,17.40
2022-12-28T11:21:12.055Z,20.00
2022-12-28T11:24:17.022Z,24.60
2022-12-28T11:27:23.216Z,22.90
2022-12-28T11:30:26.980Z,29.90
2022-12-28T11:33:36.636Z,36.40
2022-12-28T11:36:42.634Z,35.90
2022-12-28T11:39:47.180Z,41.80
2022-12-28T11:42:56.056Z,39.70
2022-12-28T11:46:00.714Z,39.60
2022-12-28T11:49:05.965Z,41.50
2022-12-28T11:52:45.568Z,46.20
2022-12-28T11:56:06.349Z,50.50
2022-12-28T11:59:24.557Z,46.30
2022-12-28T12:02:41.665Z,46.00
2022-12-28T12:05:52.955Z,43.60
2022-12-28T12:08:56.399Z,40.20
2022-12-28T12:12:03.688Z,41.60
2022-12-28T12:15:16.749Z,46.10
2022-12-28T12:18:22.169Z,44.00
2022-12-28T12:21:32.829Z,42.10
2022-12-28T12:24:42.783Z,46.00
2022-12-28T12:27:52.115Z,40.80
2022-12-28T12:30:57.486Z,41.10
2022-12-28T12:34:07.993Z,40.60
2022-12-28T12:37:34.137Z,43.30
2022-12-28T12:40:59.228Z,44.20
2022-12-28T12:44:20.043Z,46.00
2022-12-28T12:47:55.821Z,43.90
2022-12-28T12:51:16.341Z,44.40
2022-12-28T12:54:33.248Z,52.60
2022-12-28T12:57:45.270Z,49.50
2022-12-28T13:01:05.359Z,49.50
2022-12-28T13:04:14.828Z,48.70
2022-12-28T13:07:21.629Z,46.60
2022-12-28T13:10:30.961Z,47.80
2022-12-28T13:13:37.344Z,49.60
2022-12-28T13:16:42.045Z,43.00
2022-12-28T13:19:45.356Z,42.10
2022-12-28T13:22:50.095Z,39.30
2022-12-28T13:25:55.859Z,42.90
2022-12-28T13:29:01.320Z,37.30
2022-12-28T13:32:06.293Z,32.80
2022-12-28T13:35:20.265Z,34.90
2022-12-28T13:38:23.680Z,27.80
2022-12-28T13:41:28.153Z,27.50
2022-12-28T13:44:35.827Z,22.40
2022-12-28T13:47:43.958Z,22.30
2022-12-28T13:50:47.809Z,23.30
2022-12-28T13:53:58.033Z,24.00
2022-12-28T13:57:44.742Z,21.80
2022-12-28T14:00:33.148Z,24.20
2022-12-28T14:03:43.432Z,24.20
2022-12-28T14:06:49.701Z,25.00
2022-12-28T14:09:54.144Z,25.40
2022-12-28T14:12:58.386Z,25.70
2022-12-28T14:16:03.617Z,28.20
2022-12-28T14:19:08.876Z,30.90
2022-12-28T14:22:30.396Z,34.70
2022-12-28T14:25:43.498Z,39.00
2022-12-28T14:28:49.169Z,37.90
2022-12-28T14:31:57.599Z,40.90
2022-12-28T14:35:03.588Z,41.90
2022-12-28T14:38:08.041Z,42.30
2022-12-28T14:41:19.713Z,45.70
2022-12-28T14:44:28.859Z,52.80
2022-12-28T14:47:37.079Z,52.00
2022-12-28T14:50:57.214Z,50.80
2022-12-28T14:54:19.117Z,51.90
2022-12-28T14:57:28.580Z,53.40
2022-12-28T15:00:34.190Z,57.60
2022-12-28T15:03:52.070Z,60.10
2022-12-28T15:06:57.123Z,58.20
2022-12-28T15:10:00.451Z,63.70
2022-12-28T15:13:03.849Z,65.00
2022-12-28T15:16:11.242Z,71.00
2022-12-28T15:19:15.063Z,74.80
2022-12-28T15:22:21.396Z,79.90
2022-12-28T15:25:24.830Z,79.80
2022-12-28T15:28:28.317Z,84.40
2022-12-28T15:31:31.685Z,86.90
2022-12-28T15:34:35.479Z,84.80
2022-12-28T15:37:40.853Z,86.20
2022-12-28T15:40:52.248Z,89.90
2022-12-28T15:43:55.982Z,89.60
2022-12-28T15:47:00.714Z,88.00
2022-12-28T15:50:06.672Z,90.00
2022-12-28T15:53:11.576Z,90.00
2022-12-28T15:56:22.066Z,86.80
2022-12-28T15:59:30.393Z,79.00
2022-12-28T16:02:34.293Z,69.50
2022-12-28T16:05:40.156Z,59.90
2022-12-28T16:08:45.732Z,56.30
2022-12-28T16:11:54.807Z,51.80
2022-12-28T16:15:01.522Z,53.80
2022-12-28T16:18:06.934Z,46.10
2022-12-28T16:21:12.283Z,40.80
2022-12-28T16:27:21.684Z,31.90
2022-12-28T16:30:26.712Z,31.30
2022-12-28T16:33:31.869Z,34.40
2022-12-28T16:36:38.272Z,33.70
2022-12-28T16:39:45.799Z,31.50
2022-12-28T16:42:52.183Z,28.70
2022-12-28T16:45:56.633Z,29.80
2022-12-28T16:49:04.278Z,33.30
2022-12-28T16:55:28.225Z,40.30
2022-12-28T16:58:33.259Z,42.00
2022-12-28T17:01:37.276Z,45.60
2022-12-28T17:04:41.177Z,45.40
2022-12-28T17:07:45.177Z,42.10
2022-12-28T17:13:54.229Z,45.10
2022-12-28T17:16:57.725Z,51.00
2022-12-28T17:20:01.428Z,52.00
2022-12-28T17:23:05.938Z,51.60
2022-12-28T17:26:10.951Z,55.40
2022-12-28T17:29:14.476Z,57.40
2022-12-28T17:32:18.194Z,59.60
2022-12-28T17:35:22.396Z,60.00
2022-12-28T17:38:25.900Z,59.30
2022-12-28T17:41:30.844Z,63.70
2022-12-28T17:44:34.468Z,64.80
2022-12-28T17:47:37.868Z,65.50
2022-12-28T17:50:43.379Z,65.30
2022-12-28T17:53:47.115Z,66.90
2022-12-28T17:59:55.999Z,76.50
2022-12-28T18:02:59.653Z,80.40
2022-12-28T18:06:03.652Z,83.80
2022-12-28T18:09:07.779Z,83.70
2022-12-28T18:12:12.713Z,86.60
2022-12-28T18:15:16.365Z,88.00
2022-12-28T18:18:20.587Z,88.50
2022-12-28T18:21:24.313Z,88.60
2022-12-28T18:24:28.934Z,88.80
2022-12-28T18:27:36.299Z,88.90
2022-12-28T18:30:42.211Z,91.00
2022-12-28T18:33:46.248Z,92.00
2022-12-28T18:36:49.830Z,92.10
2022-12-28T18:39:53.505Z,92.70
2022-12-28T18:42:58.546Z,92.90
2022-12-28T18:46:03.863Z,92.70
2022-12-28T18:49:07.768Z,93.90
2022-12-28T18:52:11.672Z,94.60
2022-12-28T18:55:16.548Z,95.70
2022-12-28T18:58:21.550Z,95.30
2022-12-28T19:04:54.605Z,94.50
2022-12-28T19:07:59.121Z,94.50
2022-12-28T19:11:02.892Z,94.10
2022-12-28T19:14:09.582Z,92.40
2022-12-28T19:17:16.189Z,92.30
2022-12-28T19:20:21.139Z,92.60
2022-12-28T19:23:27.670Z,94.00
2022-12-28T19:26:32.893Z,93.50
2022-12-28T19:32:43.706Z,91.70
2022-12-28T19:35:47.455Z,91.30
2022-12-28T19:38:50.915Z,91.60
2022-12-28T19:41:54.643Z,92.70
2022-12-28T19:45:06.405Z,91.40
2022-12-28T19:48:25.614Z,92.20
2022-12-28T19:51:32.349Z,91.80
2022-12-28T19:54:36.370Z,91.50
2022-12-28T19:57:41.749Z,92.30
2022-12-28T20:00:46.954Z,93.40
2022-12-28T20:03:51.419Z,92.50
2022-12-28T20:06:59.532Z,92.30
2022-12-28T20:10:07.083Z,91.60
2022-12-28T20:13:13.771Z,92.00
2022-12-28T20:16:19.478Z,92.00
2022-12-28T20:19:23.610Z,92.40
2022-12-28T20:22:27.214Z,94.00
2022-12-28T20:25:30.959Z,93.80
2022-12-28T20:28:34.978Z,94.70
2022-12-28T20:31:41.370Z,94.60
2022-12-28T20:34:47.702Z,93.60
2022-12-28T20:37:57.419Z,93.80
2022-12-28T20:41:05.750Z,91.60
2022-12-28T20:44:12.382Z,94.80
2022-12-28T20:47:18.982Z,93.80
2022-12-28T20:50:22.406Z,93.00
2022-12-28T20:53:26.408Z,93.10
2022-12-28T20:56:30.231Z,92.40
2022-12-28T20:59:36.292Z,92.30
2022-12-28T21:02:41.532Z,92.00
2022-12-28T21:05:44.937Z,92.30
2022-12-28T21:08:48.325Z,93.20
2022-12-28T21:11:55.869Z,91.60
2022-12-28T21:14:59.318Z,92.90
2022-12-28T21:18:05.953Z,93.20
2022-12-28T21:21:15.645Z,94.40
2022-12-28T21:24:19.334Z,95.70
2022-12-28T21:27:23.376Z,95.80
2022-12-28T21:30:28.280Z,95.80
2022-12-28T21:33:33.666Z,95.00
2022-12-28T21:36:44.358Z,93.50
2022-12-28T21:39:49.747Z,93.40
2022-12-28T21:42:56.143Z,91.80
2022-12-28T21:46:03.922Z,91.80
2022-12-28T21:49:13.233Z,91.70
2022-12-28T21:52:17.579Z,91.10
2022-12-28T21:55:43.529Z,90.70
2022-12-28T21:58:49.389Z,90.30
2022-12-28T22:02:15.423Z,90.10
2022-12-28T22:05:34.149Z,90.90
2022-12-28T22:08:55.981Z,90.10
2022-12-28T22:12:18.191Z,91.10
2022-12-28T22:15:40.968Z,90.40
2022-12-28T22:19:01.469Z,91.30
2022-12-28T22:22:08.051Z,92.10
2022-12-28T22:25:26.730Z,92.90
2022-12-28T22:28:34.327Z,94.10
2022-12-28T22:31:39.516Z,93.70
2022-12-28T22:34:43.222Z,93.30
2022-12-28T22:37:48.900Z,93.70
2022-12-28T22:40:58.682Z,94.20
2022-12-28T22:44:02.110Z,94.30
2022-12-28T22:47:06.540Z,94.30
2022-12-28T22:50:12.096Z,94.50
2022-12-28T22:53:16.845Z,94.10
2022-12-28T22:56:21.046Z,92.20
2022-12-28T22:59:24.543Z,93.40
2022-12-28T23:02:31.842Z,92.50
2022-12-28T23:05:35.640Z,92.20
2022-12-28T23:08:40.471Z,91.80
2022-12-28T23:11:43.835Z,91.70
2022-12-28T23:15:04.252Z,92.10
2022-12-28T23:18:21.416Z,90.50
2022-12-28T23:21:42.704Z,91.70
2022-12-28T23:25:05.956Z,93.60
2022-12-28T23:28:11.891Z,92.80
2022-12-28T23:31:17.829Z,93.00
2022-12-28T23:34:21.507Z,93.40
2022-12-28T23:37:24.921Z,93.30
2022-12-28T23:43:34.094Z,91.80
2022-12-28T23:46:37.338Z,91.10
2022-12-28T23:49:40.628Z,89.50
2022-12-28T23:52:44.289Z,90.20
2022-12-28T23:55:48.946Z,90.00
2022-12-28T23:58:52.469Z,91.00
